createdAt,value
2023-05-20T00:03:02.530Z,0.00
2023-05-20T00:13:02.548Z,0.00
2023-05-20T00:23:02.784Z,0.00
2023-05-20T00:33:03.052Z,0.00
2023-05-20T00:43:03.257Z,0.00
2023-05-20T00:53:03.471Z,0.00
2023-05-20T01:03:03.898Z,0.00
2023-05-20T01:13:03.929Z,0.00
2023-05-20T01:23:03.987Z,0.00
2023-05-20T01:33:04.230Z,0.00
2023-05-20T01:43:04.532Z,0.00
2023-05-20T01:53:04.690Z,0.00
2023-05-20T02:03:04.945Z,0.00
2023-05-20T02:13:05.266Z,0.00
2023-05-20T02:23:05.252Z,0.00
2023-05-20T02:33:05.661Z,0.00
2023-05-20T02:43:05.713Z,0.00
2023-05-20T02:53:05.708Z,12.00
2023-05-20T03:03:06.018Z,0.00
2023-05-20T03:13:06.135Z,0.00
2023-05-20T03:23:06.243Z,0.00
2023-05-20T03:33:06.362Z,4.00
2023-05-20T03:43:06.534Z,12.00
2023-05-20T03:53:06.703Z,28.00
2023-05-20T04:03:06.939Z,44.00
2023-05-20T04:13:06.964Z,72.00
2023-05-20T04:23:07.203Z,100.00
2023-05-20T04:33:07.393Z,144.00
2023-05-20T04:43:07.534Z,160.00
2023-05-20T04:53:07.707Z,200.00
2023-05-20T05:03:07.904Z,296.00
2023-05-20T05:13:08.050Z,380.00
2023-05-20T05:23:08.221Z,484.00
2023-05-20T05:33:08.432Z,488.00
2023-05-20T05:43:08.544Z,368.00
2023-05-20T05:53:08.764Z,608.00
2023-05-20T06:03:09.010Z,672.00
2023-05-20T06:13:09.019Z,760.00
2023-05-20T06:23:09.197Z,876.00
2023-05-20T06:33:09.385Z,860.00
2023-05-20T06:43:09.562Z,968.00
2023-05-20T06:53:09.727Z,980.00
2023-05-20T07:03:10.016Z,832.00
2023-05-20T07:13:10.169Z,1108.00
2023-05-20T07:23:10.341Z,1116.00
2023-05-20T07:33:10.516Z,1236.00
2023-05-20T07:43:10.698Z,1420.00
2023-05-20T07:53:10.869Z,1568.00
2023-05-20T08:03:11.143Z,988.00
2023-05-20T08:13:11.253Z,1384.00
2023-05-20T08:23:11.425Z,1240.00
2023-05-20T08:33:11.760Z,1372.00
2023-05-20T08:43:11.704Z,1200.00
2023-05-20T08:53:11.880Z,1212.00
2023-05-20T09:03:12.136Z,1272.00
2023-05-20T09:13:12.276Z,1440.00
2023-05-20T09:23:12.438Z,924.00
2023-05-20T09:33:12.682Z,920.00
2023-05-20T09:43:12.867Z,1212.00
2023-05-20T09:53:13.149Z,1228.00
2023-05-20T10:03:13.196Z,1328.00
2023-05-20T10:13:13.414Z,1528.00
2023-05-20T10:23:13.599Z,2240.00
2023-05-20T10:33:13.844Z,1532.00
2023-05-20T10:43:14.044Z,1424.00
2023-05-20T10:53:21.973Z,1464.00
2023-05-20T11:03:15.622Z,2592.00
2023-05-20T11:13:14.754Z,2776.00
2023-05-20T11:23:14.950Z,2412.00
2023-05-20T11:33:15.172Z,2444.00
2023-05-20T11:43:15.342Z,3408.00
2023-05-20T11:53:15.507Z,3856.00
2023-05-20T12:03:15.831Z,3380.00
2023-05-20T12:13:15.905Z,3444.00
2023-05-20T12:23:16.110Z,3848.00
2023-05-20T12:33:16.278Z,1568.00
2023-05-20T12:43:16.431Z,3896.00
2023-05-20T12:53:16.665Z,1376.00
2023-05-20T13:03:17.012Z,1376.00
2023-05-20T13:13:16.986Z,1776.00
2023-05-20T13:23:17.157Z,2820.00
2023-05-20T13:33:17.331Z,3472.00
2023-05-20T13:43:17.520Z,2764.00
2023-05-20T13:53:17.687Z,2432.00
2023-05-20T14:03:17.921Z,2240.00
2023-05-20T14:13:18.133Z,2108.00
2023-05-20T14:23:18.329Z,1512.00
2023-05-20T14:33:18.498Z,1064.00
2023-05-20T14:43:18.700Z,880.00
2023-05-20T14:53:18.900Z,948.00
2023-05-20T15:03:19.149Z,1000.00
2023-05-20T15:13:19.149Z,888.00
2023-05-20T15:23:19.362Z,860.00
2023-05-20T15:33:19.574Z,788.00
2023-05-20T15:43:19.732Z,780.00
2023-05-20T15:53:19.910Z,704.00
2023-05-20T16:03:20.087Z,448.00
2023-05-20T16:13:20.293Z,240.00
2023-05-20T16:23:20.451Z,232.00
2023-05-20T16:33:20.635Z,256.00
2023-05-20T16:43:20.812Z,268.00
2023-05-20T16:53:21.108Z,348.00
2023-05-20T17:03:21.086Z,356.00
2023-05-20T17:13:21.319Z,268.00
2023-05-20T17:23:21.623Z,176.00
2023-05-20T17:33:21.949Z,120.00
2023-05-20T17:43:22.062Z,108.00
2023-05-20T17:53:22.382Z,112.00
2023-05-20T18:03:22.453Z,88.00
2023-05-20T18:13:22.560Z,60.00
2023-05-20T18:23:22.843Z,44.00
2023-05-20T18:33:23.060Z,28.00
2023-05-20T18:43:23.273Z,16.00
2023-05-20T18:53:23.574Z,4.00
2023-05-20T19:03:23.853Z,0.00
2023-05-20T19:13:23.933Z,0.00
2023-05-20T19:23:24.066Z,0.00
2023-05-20T19:33:24.251Z,0.00
2023-05-20T19:43:24.340Z,0.00
2023-05-20T19:53:24.553Z,0.00
2023-05-20T20:03:24.700Z,0.00
2023-05-20T20:13:24.783Z,0.00
2023-05-20T20:23:24.934Z,0.00
2023-05-20T20:33:25.230Z,0.00
2023-05-20T20:43:25.397Z,0.00
2023-05-20T20:53:25.386Z,0.00
2023-05-20T21:03:25.431Z,0.00
2023-05-20T21:13:25.426Z,0.00
2023-05-20T21:23:25.620Z,0.00
2023-05-20T21:33:25.851Z,0.00
2023-05-20T21:43:26.036Z,0.00
2023-05-20T21:53:26.225Z,0.00
2023-05-20T22:03:26.563Z,0.00
2023-05-20T22:13:26.552Z,0.00
2023-05-20T22:23:26.884Z,0.00
2023-05-20T22:33:26.848Z,0.00
2023-05-20T22:43:27.082Z,0.00
2023-05-20T22:53:27.321Z,0.00
2023-05-20T23:03:27.504Z,0.00
2023-05-20T23:13:27.710Z,0.00
2023-05-20T23:23:31.738Z,0.00
2023-05-20T23:33:28.135Z,0.00
2023-05-20T23:43:28.388Z,0.00
2023-05-20T23:53:28.604Z,0.00
